createdAt,value
2019-04-04T00:01:13.086Z,15.90
2019-04-04T00:04:03.033Z,19.57
2019-04-04T00:06:32.586Z,26.97
2019-04-04T00:09:02.635Z,23.83
2019-04-04T00:11:32.034Z,20.40
2019-04-04T00:14:01.465Z,17.40
2019-04-04T00:16:30.839Z,19.27
2019-04-04T00:19:10.317Z,18.20
2019-04-04T00:21:39.783Z,17.03
2019-04-04T00:26:59.541Z,21.17
2019-04-04T00:29:28.959Z,18.70
2019-04-04T00:31:58.381Z,17.10
2019-04-04T00:37:04.443Z,19.17
2019-04-04T00:39:45.359Z,21.13
2019-04-04T00:42:26.442Z,18.60
2019-04-04T00:44:56.772Z,21.33
2019-04-04T00:47:26.141Z,19.00
2019-04-04T00:50:11.471Z,18.37
2019-04-04T00:52:41.517Z,17.67
2019-04-04T00:58:01.290Z,20.80
2019-04-04T01:00:30.646Z,23.87
2019-04-04T01:03:00.612Z,20.77
2019-04-04T01:05:49.055Z,22.80
2019-04-04T01:11:31.380Z,26.33
2019-04-04T01:14:00.843Z,19.90
2019-04-04T01:16:49.405Z,21.20
2019-04-04T01:19:38.065Z,17.20
2019-04-04T01:22:27.503Z,18.90
2019-04-04T01:24:56.925Z,16.43
2019-04-04T01:27:45.461Z,24.87
2019-04-04T01:30:26.947Z,20.40
2019-04-04T01:32:56.372Z,20.17
2019-04-04T01:35:25.795Z,18.43
2019-04-04T01:43:40.991Z,18.63
2019-04-04T01:46:10.582Z,20.37
2019-04-04T01:48:58.909Z,17.33
2019-04-04T01:51:31.928Z,22.80
2019-04-04T01:59:25.041Z,23.60
2019-04-04T02:02:06.989Z,20.33
2019-04-04T02:07:24.191Z,17.33
2019-04-04T02:12:47.417Z,21.00
2019-04-04T02:15:16.900Z,17.20
2019-04-04T02:17:46.274Z,16.60
2019-04-04T02:20:15.949Z,19.43
2019-04-04T02:22:45.338Z,22.20
2019-04-04T02:25:14.892Z,14.87
2019-04-04T02:27:44.334Z,17.77
2019-04-04T02:30:16.103Z,14.97
2019-04-04T02:33:00.477Z,18.23
2019-04-04T02:35:28.397Z,19.30
2019-04-04T02:37:57.804Z,18.10
2019-04-04T02:40:27.237Z,18.57
2019-04-04T02:42:57.388Z,17.60
2019-04-04T02:45:29.878Z,12.77
2019-04-04T02:47:59.324Z,20.37
2019-04-04T02:50:28.753Z,18.27
2019-04-04T02:52:58.255Z,19.23
2019-04-04T02:55:31.043Z,17.70
2019-04-04T02:58:01.662Z,16.70
2019-04-04T03:00:34.445Z,16.90
2019-04-04T03:03:08.225Z,18.97
2019-04-04T03:08:21.693Z,15.47
2019-04-04T03:11:12.997Z,18.47
2019-04-04T03:13:45.763Z,19.50
2019-04-04T03:16:15.204Z,17.50
2019-04-04T03:19:23.958Z,16.17
2019-04-04T03:24:47.155Z,18.63
2019-04-04T03:27:16.553Z,17.40
2019-04-04T03:29:45.929Z,14.90
2019-04-04T03:32:16.627Z,19.80
2019-04-04T03:34:58.259Z,19.20
2019-04-04T03:37:27.834Z,17.13
2019-04-04T03:39:57.231Z,18.43
2019-04-04T03:42:26.647Z,22.60
2019-04-04T03:44:57.290Z,24.73
2019-04-04T03:47:28.182Z,19.73
2019-04-04T03:49:58.080Z,29.17
2019-04-04T03:52:28.863Z,26.67
2019-04-04T03:54:58.513Z,21.87
2019-04-04T03:57:27.966Z,22.60
2019-04-04T03:59:57.551Z,26.47
2019-04-04T04:02:26.986Z,18.63
2019-04-04T04:05:15.340Z,21.00
2019-04-04T04:07:45.881Z,15.37
2019-04-04T04:10:19.679Z,29.83
2019-04-04T04:12:49.147Z,19.03
2019-04-04T04:15:19.109Z,20.03
2019-04-04T04:17:48.733Z,18.93
2019-04-04T04:20:18.311Z,16.20
2019-04-04T04:22:50.436Z,15.63
2019-04-04T04:25:49.902Z,16.13
2019-04-04T04:31:31.799Z,19.67
2019-04-04T04:34:01.884Z,21.03
2019-04-04T04:36:32.429Z,18.60
2019-04-04T04:39:01.885Z,20.30
2019-04-04T04:41:31.307Z,19.50
2019-04-04T04:44:02.707Z,20.87
2019-04-04T04:46:51.230Z,17.97
2019-04-04T04:49:23.536Z,17.97
2019-04-04T04:59:45.979Z,26.37
2019-04-04T05:02:15.471Z,20.77
2019-04-04T05:04:45.337Z,19.47
2019-04-04T05:07:14.719Z,20.13
2019-04-04T05:09:44.986Z,15.93
2019-04-04T05:12:14.380Z,20.77
2019-04-04T05:14:43.878Z,19.63
2019-04-04T05:17:13.325Z,18.87
2019-04-04T05:19:45.125Z,20.50
2019-04-04T05:22:14.367Z,16.80
2019-04-04T05:24:49.141Z,19.27
2019-04-04T05:27:17.561Z,21.63
2019-04-04T05:29:47.137Z,16.80
2019-04-04T05:32:16.559Z,20.80
2019-04-04T05:34:46.371Z,23.50
2019-04-04T05:37:15.913Z,22.70
2019-04-04T05:39:46.947Z,20.77
2019-04-04T05:44:51.999Z,25.10
2019-04-04T05:50:16.543Z,21.00
2019-04-04T05:52:58.446Z,22.57
2019-04-04T05:55:28.030Z,34.97
2019-04-04T05:58:16.384Z,25.57
2019-04-04T06:03:37.699Z,25.57
2019-04-04T06:06:10.377Z,24.13
2019-04-04T06:08:42.435Z,28.87
2019-04-04T06:11:10.227Z,21.93
2019-04-04T06:13:39.826Z,19.90
2019-04-04T06:16:09.353Z,21.43
2019-04-04T06:18:57.854Z,22.60
2019-04-04T06:21:27.328Z,24.70
2019-04-04T06:23:56.806Z,24.87
2019-04-04T06:26:26.269Z,23.87
2019-04-04T06:28:55.931Z,24.77
2019-04-04T06:31:26.481Z,25.67
2019-04-04T06:36:30.951Z,26.57
2019-04-04T06:39:02.544Z,23.93
2019-04-04T06:42:04.844Z,24.20
2019-04-04T06:44:34.128Z,26.67
2019-04-04T06:47:25.602Z,19.17
2019-04-04T06:49:54.869Z,27.77
2019-04-04T06:52:24.286Z,23.07
2019-04-04T06:55:12.586Z,24.67
2019-04-04T07:00:36.489Z,26.17
2019-04-04T07:03:06.017Z,22.60
2019-04-04T07:05:37.825Z,24.80
2019-04-04T07:08:06.958Z,21.03
2019-04-04T07:10:57.814Z,24.50
2019-04-04T07:15:48.420Z,22.53
2019-04-04T07:21:03.728Z,21.77
2019-04-04T07:23:33.521Z,21.83
2019-04-04T07:26:02.969Z,23.00
2019-04-04T07:28:32.354Z,23.23
2019-04-04T07:31:02.503Z,21.23
2019-04-04T07:33:33.488Z,22.93
2019-04-04T07:36:02.907Z,20.43
2019-04-04T07:38:34.935Z,20.50
2019-04-04T07:41:03.566Z,23.40
2019-04-04T07:43:33.472Z,20.03
2019-04-04T07:46:15.560Z,21.33
2019-04-04T07:48:37.030Z,20.70
2019-04-04T07:51:06.437Z,18.87
2019-04-04T07:53:37.124Z,20.53
2019-04-04T07:56:06.724Z,21.27
2019-04-04T07:58:39.652Z,20.63
2019-04-04T08:01:09.076Z,20.37
2019-04-04T08:06:16.112Z,20.63
2019-04-04T08:08:57.438Z,19.93
2019-04-04T08:11:27.434Z,17.27
2019-04-04T08:14:15.777Z,16.97
2019-04-04T08:16:45.307Z,19.87
2019-04-04T08:19:14.744Z,19.20
2019-04-04T08:21:44.545Z,16.30
2019-04-04T08:24:13.964Z,21.20
2019-04-04T08:29:39.054Z,20.23
2019-04-04T08:32:08.831Z,19.50
2019-04-04T08:34:38.305Z,18.27
2019-04-04T08:39:43.243Z,17.63
2019-04-04T08:42:23.819Z,15.97
2019-04-04T08:44:53.345Z,19.37
2019-04-04T08:47:22.760Z,17.47
2019-04-04T08:52:46.896Z,17.53
2019-04-04T08:55:35.277Z,16.37
2019-04-04T09:00:58.607Z,17.97
2019-04-04T09:03:28.044Z,16.40
2019-04-04T09:05:57.477Z,14.23
2019-04-04T09:11:01.647Z,14.23
2019-04-04T09:13:31.127Z,13.93
2019-04-04T09:16:00.648Z,15.63
2019-04-04T09:18:30.074Z,16.63
2019-04-04T09:20:59.716Z,16.20
2019-04-04T09:23:54.513Z,15.90
2019-04-04T09:26:24.575Z,16.20
2019-04-04T09:28:57.098Z,14.73
2019-04-04T09:31:26.515Z,16.60
2019-04-04T09:33:55.933Z,16.67
2019-04-04T09:36:25.316Z,15.53
2019-04-04T09:41:44.963Z,14.60
2019-04-04T09:44:15.151Z,14.60
2019-04-04T09:47:05.938Z,15.87
2019-04-04T09:49:35.830Z,15.47
2019-04-04T09:52:05.308Z,15.20
2019-04-04T09:54:36.439Z,14.07
2019-04-04T09:57:08.348Z,13.97
2019-04-04T10:02:26.306Z,14.83
2019-04-04T10:04:55.723Z,16.77
2019-04-04T10:07:25.537Z,16.63
2019-04-04T10:12:31.082Z,17.43
2019-04-04T10:17:51.358Z,14.10
2019-04-04T10:32:07.991Z,17.40
2019-04-04T10:34:37.805Z,14.10
2019-04-04T10:37:07.365Z,16.27
2019-04-04T10:39:40.549Z,15.33
2019-04-04T10:42:43.529Z,15.87
2019-04-04T10:44:59.975Z,14.97
2019-04-04T10:47:29.418Z,16.07
2019-04-04T10:50:13.591Z,13.33
2019-04-04T10:52:30.190Z,15.40
2019-04-04T10:55:19.042Z,16.23
2019-04-04T10:58:07.912Z,16.93
2019-04-04T11:00:37.569Z,17.77
2019-04-04T11:03:07.092Z,15.33
2019-04-04T11:05:36.584Z,14.13
2019-04-04T11:08:06.219Z,21.33
2019-04-04T11:10:35.845Z,14.07
2019-04-04T11:13:05.391Z,15.97
2019-04-04T11:15:35.021Z,14.03
2019-04-04T11:18:04.461Z,18.27
2019-04-04T11:20:34.740Z,14.80
2019-04-04T11:23:04.135Z,16.77
2019-04-04T11:25:37.224Z,16.10
2019-04-04T11:28:08.721Z,14.87
2019-04-04T11:30:41.416Z,16.87
2019-04-04T11:33:10.963Z,17.33
2019-04-04T11:35:40.546Z,15.83
2019-04-04T11:38:10.205Z,17.37
2019-04-04T11:40:40.435Z,15.33
2019-04-04T11:45:47.360Z,15.00
2019-04-04T11:51:09.452Z,16.83
2019-04-04T11:53:28.980Z,12.73
2019-04-04T11:55:58.380Z,15.63
2019-04-04T11:58:28.883Z,17.17
2019-04-04T12:06:22.878Z,14.63
2019-04-04T12:08:52.571Z,15.00
2019-04-04T12:11:24.286Z,15.10
2019-04-04T12:13:53.684Z,17.37
2019-04-04T12:16:23.118Z,19.70
2019-04-04T12:18:52.509Z,17.47
2019-04-04T12:24:16.834Z,17.63
2019-04-04T12:26:46.311Z,19.07
2019-04-04T12:29:15.708Z,16.40
2019-04-04T12:34:41.167Z,14.63
2019-04-04T12:37:10.672Z,16.37
2019-04-04T12:39:59.025Z,13.77
2019-04-04T12:42:29.855Z,15.93
2019-04-04T12:44:59.282Z,14.40
2019-04-04T12:47:28.862Z,16.43
2019-04-04T12:49:58.283Z,17.53
2019-04-04T12:52:28.126Z,18.60
2019-04-04T12:54:57.634Z,15.57
2019-04-04T12:57:27.061Z,16.47
2019-04-04T12:59:56.615Z,16.83
2019-04-04T13:02:28.750Z,17.20
2019-04-04T13:04:58.161Z,15.30
2019-04-04T13:07:27.581Z,21.00
2019-04-04T13:09:57.103Z,19.37
2019-04-04T13:12:27.138Z,16.63
2019-04-04T13:14:56.627Z,16.43
2019-04-04T13:17:26.407Z,17.07
2019-04-04T13:19:55.773Z,16.10
2019-04-04T13:22:25.779Z,17.53
2019-04-04T13:24:55.229Z,17.67
2019-04-04T13:27:24.762Z,16.47
2019-04-04T13:29:54.180Z,16.93
2019-04-04T13:32:26.206Z,16.30
2019-04-04T13:34:59.651Z,20.30
2019-04-04T13:37:26.996Z,15.37
2019-04-04T13:39:56.424Z,14.33
2019-04-04T13:45:31.741Z,17.50
2019-04-04T13:48:01.225Z,15.13
2019-04-04T13:50:31.248Z,14.17
2019-04-04T13:53:00.976Z,15.30
2019-04-04T13:55:30.359Z,15.57
2019-04-04T13:58:02.571Z,21.00
2019-04-04T14:00:32.019Z,17.47
2019-04-04T14:03:01.999Z,15.83
2019-04-04T14:05:31.413Z,16.87
2019-04-04T14:08:19.838Z,13.80
2019-04-04T14:10:57.960Z,14.77
2019-04-04T14:13:32.124Z,16.97
2019-04-04T14:16:04.105Z,15.77
2019-04-04T14:18:39.704Z,18.33
2019-04-04T14:26:22.946Z,17.30
2019-04-04T14:28:53.380Z,16.63
2019-04-04T14:31:23.052Z,16.07
2019-04-04T14:33:52.548Z,15.00
2019-04-04T14:36:22.024Z,17.13
2019-04-04T14:38:51.989Z,17.60
2019-04-04T14:42:00.731Z,18.70
2019-04-04T14:44:30.786Z,12.77
2019-04-04T14:47:01.418Z,17.27
2019-04-04T14:49:30.859Z,18.13
2019-04-04T14:52:00.723Z,19.10
2019-04-04T14:54:30.159Z,17.40
2019-04-04T14:56:59.567Z,13.70
2019-04-04T14:59:28.986Z,18.10
2019-04-04T15:02:01.168Z,13.97
2019-04-04T15:04:30.574Z,16.83
2019-04-04T15:07:00.096Z,15.80
2019-04-04T15:09:29.527Z,17.87
2019-04-04T15:11:59.053Z,17.10
2019-04-04T15:14:28.458Z,17.43
2019-04-04T15:16:57.896Z,16.10
2019-04-04T15:19:27.359Z,15.40
2019-04-04T15:21:56.876Z,17.13
2019-04-04T15:27:01.737Z,16.80
2019-04-04T15:29:43.151Z,15.47
2019-04-04T15:34:53.475Z,17.53
2019-04-04T15:37:23.153Z,16.03
2019-04-04T15:39:52.572Z,14.30
2019-04-04T15:42:22.153Z,16.67
2019-04-04T15:44:51.760Z,17.13
2019-04-04T15:47:21.573Z,15.00
2019-04-04T15:49:51.092Z,16.60
2019-04-04T15:52:20.497Z,14.73
2019-04-04T15:54:50.055Z,21.40
2019-04-04T15:57:22.010Z,19.83
2019-04-04T15:59:51.453Z,14.17
2019-04-04T16:02:22.576Z,16.47
2019-04-04T16:07:27.334Z,15.80
2019-04-04T16:09:57.069Z,17.50
2019-04-04T16:12:26.511Z,17.50
2019-04-04T16:14:55.979Z,16.40
2019-04-04T16:17:25.521Z,17.30
2019-04-04T16:19:54.944Z,18.60
2019-04-04T16:22:24.393Z,17.53
2019-04-04T16:24:54.046Z,16.87
2019-04-04T16:27:23.603Z,15.90
2019-04-04T16:29:53.050Z,16.80
2019-04-04T16:32:22.850Z,15.60
2019-04-04T16:34:52.681Z,15.40
2019-04-04T16:37:23.644Z,14.57
2019-04-04T16:39:53.375Z,17.33
2019-04-04T16:42:23.401Z,15.93
2019-04-04T16:44:52.942Z,15.57
2019-04-04T16:47:22.382Z,12.93
2019-04-04T16:49:51.866Z,15.73
2019-04-04T16:52:21.477Z,14.53
2019-04-04T16:57:28.232Z,15.07
2019-04-04T16:59:57.800Z,15.23
2019-04-04T17:02:27.352Z,16.33
2019-04-04T17:04:56.971Z,14.13
2019-04-04T17:07:26.423Z,16.07
2019-04-04T17:09:55.852Z,16.63
2019-04-04T17:12:25.293Z,14.27
2019-04-04T17:17:34.707Z,14.00
2019-04-04T17:20:04.471Z,17.87
2019-04-04T17:22:52.821Z,16.23
2019-04-04T17:25:22.348Z,15.37
2019-04-04T17:27:51.839Z,14.90
2019-04-04T17:30:21.362Z,13.13
2019-04-04T17:33:02.460Z,16.83
2019-04-04T17:35:51.030Z,15.03
2019-04-04T17:38:20.808Z,15.27
2019-04-04T17:40:50.284Z,15.20
2019-04-04T17:43:20.248Z,17.60
2019-04-04T17:45:49.963Z,15.17
2019-04-04T17:48:19.800Z,17.20
2019-04-04T17:50:51.073Z,14.17
2019-04-04T17:53:20.719Z,13.40
2019-04-04T17:55:50.613Z,14.97
2019-04-04T18:01:15.705Z,14.70
2019-04-04T18:03:47.273Z,15.17
2019-04-04T18:06:17.139Z,15.80
2019-04-04T18:11:21.345Z,16.57
2019-04-04T18:13:50.861Z,15.97
2019-04-04T18:16:24.909Z,16.27
2019-04-04T18:18:54.355Z,14.90
2019-04-04T18:24:01.898Z,16.07
2019-04-04T18:29:13.787Z,15.40
2019-04-04T18:34:27.050Z,15.17
2019-04-04T18:36:56.570Z,14.73
2019-04-04T18:39:26.601Z,14.23
2019-04-04T18:41:57.421Z,12.50
2019-04-04T18:47:21.695Z,15.17
2019-04-04T18:49:51.234Z,13.70
2019-04-04T18:52:24.774Z,15.80
2019-04-04T18:54:54.330Z,12.90
2019-04-04T18:57:24.232Z,15.73
2019-04-04T18:59:53.677Z,16.60
2019-04-04T19:02:23.983Z,13.83
2019-04-04T19:04:53.384Z,15.20
2019-04-04T19:07:39.585Z,13.47
2019-04-04T19:09:54.671Z,15.23
2019-04-04T19:12:24.263Z,14.40
2019-04-04T19:14:53.696Z,13.50
2019-04-04T19:17:42.157Z,11.87
2019-04-04T19:22:55.941Z,15.37
2019-04-04T19:25:25.670Z,16.37
2019-04-04T19:27:55.105Z,12.20
2019-04-04T19:30:24.654Z,12.23
2019-04-04T19:32:54.084Z,13.30
2019-04-04T19:35:23.480Z,15.27
2019-04-04T19:38:00.335Z,15.25
2019-04-04T19:40:26.385Z,14.50
2019-04-04T19:42:55.870Z,14.93
2019-04-04T19:48:00.002Z,14.80
2019-04-04T19:56:12.354Z,17.90
2019-04-04T20:01:25.782Z,16.33
2019-04-04T20:07:03.693Z,17.40
2019-04-04T20:09:35.871Z,12.37
2019-04-04T20:12:05.341Z,14.10
2019-04-04T20:14:39.391Z,14.47
2019-04-04T20:17:11.540Z,15.17
2019-04-04T20:19:41.116Z,15.10
2019-04-04T20:22:10.593Z,12.60
2019-04-04T20:24:59.042Z,13.53
2019-04-04T20:27:28.568Z,16.13
2019-04-04T20:29:57.988Z,14.43
2019-04-04T20:32:27.410Z,13.97
2019-04-04T20:34:56.796Z,17.40
2019-04-04T20:37:26.163Z,14.10
2019-04-04T20:39:55.716Z,13.23
2019-04-04T20:42:25.108Z,17.27
2019-04-04T20:44:54.492Z,13.93
2019-04-04T20:49:59.349Z,17.70
2019-04-04T20:52:41.314Z,15.70
2019-04-04T20:55:11.381Z,17.23
2019-04-04T20:57:40.851Z,15.17
2019-04-04T21:00:10.595Z,13.03
2019-04-04T21:02:40.169Z,18.40
2019-04-04T21:05:09.582Z,16.60
2019-04-04T21:15:24.973Z,14.33
2019-04-04T21:17:54.496Z,13.77
2019-04-04T21:20:23.877Z,13.10
2019-04-04T21:22:53.274Z,14.97
2019-04-04T21:27:57.377Z,15.37
2019-04-04T21:30:26.906Z,15.43
2019-04-04T21:32:56.282Z,12.93
2019-04-04T21:35:25.693Z,18.33
2019-04-04T21:37:55.228Z,15.70
2019-04-04T21:40:24.602Z,14.47
2019-04-04T21:42:53.996Z,16.20
2019-04-04T21:45:23.504Z,16.07
2019-04-04T21:47:55.542Z,15.33
2019-04-04T21:50:24.939Z,17.13
2019-04-04T21:52:54.680Z,14.43
2019-04-04T21:55:24.041Z,13.57
2019-04-04T21:57:53.581Z,14.83
2019-04-04T22:02:58.944Z,13.87
2019-04-04T22:05:28.456Z,13.90
2019-04-04T22:07:57.827Z,15.83
2019-04-04T22:10:27.267Z,14.50
2019-04-04T22:12:57.341Z,17.57
2019-04-04T22:15:45.585Z,19.43
2019-04-04T22:18:15.183Z,18.40
2019-04-04T22:20:44.938Z,12.60
2019-04-04T22:23:14.406Z,17.93
2019-04-04T22:25:44.204Z,12.03
2019-04-04T22:28:13.604Z,13.00
2019-04-04T22:30:43.981Z,14.80
2019-04-04T22:33:13.465Z,14.57
2019-04-04T22:35:43.047Z,12.90
2019-04-04T22:38:12.441Z,15.60
2019-04-04T22:40:42.091Z,17.43
2019-04-04T22:43:12.646Z,13.07
2019-04-04T22:46:01.238Z,17.07
2019-04-04T22:48:30.690Z,19.93
2019-04-04T22:51:00.077Z,12.60
2019-04-04T22:53:29.571Z,12.07
2019-04-04T22:55:58.953Z,15.40
2019-04-04T22:58:29.095Z,16.60
2019-04-04T23:00:58.461Z,15.03
2019-04-04T23:03:29.038Z,14.67
2019-04-04T23:05:58.508Z,14.67
2019-04-04T23:08:27.972Z,17.23
2019-04-04T23:10:57.547Z,13.63
2019-04-04T23:13:28.482Z,24.20
2019-04-04T23:15:57.939Z,13.80
2019-04-04T23:18:27.394Z,13.97
2019-04-04T23:20:56.821Z,14.17
2019-04-04T23:23:26.605Z,13.10
2019-04-04T23:25:56.043Z,17.60
2019-04-04T23:28:25.436Z,16.27
2019-04-04T23:30:54.917Z,13.97
2019-04-04T23:33:24.596Z,16.00
2019-04-04T23:35:54.009Z,14.37
2019-04-04T23:38:27.504Z,14.77
2019-04-04T23:40:56.956Z,17.37
2019-04-04T23:43:26.366Z,18.53
2019-04-04T23:45:55.790Z,13.03
2019-04-04T23:48:25.914Z,14.50
2019-04-04T23:51:06.574Z,13.47
2019-04-04T23:53:36.167Z,13.50
2019-04-04T23:56:05.787Z,13.90
2019-04-04T23:58:35.296Z,15.57
